KFCS/FCS METAR and TAF weather

Enter ICAO airport designator
Station Type Date Time Source
KFCS METAR 2019/12/10 05:58 UTC NOAA

KFCS 100558Z AUTO 25003KT 10SM CLR M04/M09 A3005 RMK AO2 SLP233 T10411091 10006 21047 50006 $


Station Type Date Time Source
KFCS Decoded METAR 2019/12/10 05:58 UTC NOAA

Fort Carson, CO, United States (KFCS) 38-42N 104-46W 1789M
Dec 10, 2019 - 12:58 AM EST / 2019.12.10 0558 UTC
Wind: from the WSW (250 degrees) at 3 MPH (3 KT):0
Visibility: 10 mile(s):0
Sky conditions: clear
Temperature: 24.6 F (-4.1 C)
Dew Point: 15.6 F (-9.1 C)
Relative Humidity: 68%
Pressure (altimeter): 30.05 in. Hg (1017 hPa)
Pressure tendency: 0.02 inches (0.6 hPa) higher than three hours ago
ob: KFCS 100558Z AUTO 25003KT 10SM CLR M04/M09 A3005 RMK AO2 SLP233 T10411091 10006 21047 50006
cycle: 6

Station Type Date Time Source
KFCS TAF 2019/12/10 05:06 UTC NOAA

TAF TAF KFCS 100502Z 1005/1111 VRB06KT 9999 SCT014 QNH3001INS
BECMG 1021/1022 15009KT 9999 SKC QNH3009INS
BECMG 1102/1103 VRB06KT 9999 SKC QNH3018INS TX06/1021Z TNM06/1014Z

Example: see airport list